createdAt,value
2019-05-14T00:00:16.120Z,2.50
2019-05-14T00:02:47.214Z,2.63
2019-05-14T00:05:18.926Z,2.47
2019-05-14T00:07:51.978Z,2.60
2019-05-14T00:10:22.798Z,2.30
2019-05-14T00:12:53.829Z,2.60
2019-05-14T00:15:25.158Z,2.70
2019-05-14T00:17:56.564Z,2.93
2019-05-14T00:20:27.747Z,2.60
2019-05-14T00:23:01.252Z,2.30
2019-05-14T00:25:31.716Z,2.30
2019-05-14T00:28:02.660Z,2.67
2019-05-14T00:30:34.014Z,2.43
2019-05-14T00:33:05.022Z,2.50
2019-05-14T00:35:36.118Z,2.67
2019-05-14T00:38:07.126Z,2.93
2019-05-14T00:40:38.126Z,2.37
2019-05-14T00:43:11.295Z,2.67
2019-05-14T00:45:41.922Z,2.63
2019-05-14T00:48:13.295Z,2.70
2019-05-14T00:50:44.499Z,2.40
2019-05-14T00:53:15.561Z,2.50
2019-05-14T00:55:46.824Z,2.33
2019-05-14T00:58:17.818Z,2.30
2019-05-14T01:00:48.914Z,2.90
2019-05-14T01:03:21.723Z,2.40
2019-05-14T01:05:52.977Z,2.47
2019-05-14T01:08:35.855Z,2.60
2019-05-14T01:11:07.068Z,2.60
2019-05-14T01:13:38.097Z,2.80
2019-05-14T01:16:12.061Z,2.80
2019-05-14T01:18:42.786Z,2.80
2019-05-14T01:21:14.151Z,2.60
2019-05-14T01:23:45.200Z,2.77
2019-05-14T01:26:16.174Z,2.80
2019-05-14T01:28:47.229Z,2.60
2019-05-14T01:31:18.227Z,2.47
2019-05-14T01:33:51.395Z,2.07
2019-05-14T01:36:21.835Z,2.70
2019-05-14T01:38:52.906Z,2.60
2019-05-14T01:41:23.949Z,3.10
2019-05-14T01:43:54.985Z,2.70
2019-05-14T01:46:26.036Z,2.20
2019-05-14T01:48:58.515Z,2.57
2019-05-14T01:51:31.617Z,2.37
2019-05-14T01:54:02.564Z,2.50
2019-05-14T01:56:33.977Z,2.67
2019-05-14T01:59:05.363Z,2.47
2019-05-14T02:01:36.700Z,2.30
2019-05-14T02:04:07.706Z,2.53
2019-05-14T02:06:41.223Z,2.40
2019-05-14T02:09:12.111Z,2.50
2019-05-14T02:11:43.098Z,2.47
2019-05-14T02:14:14.174Z,2.60
2019-05-14T02:16:45.128Z,2.43
2019-05-14T02:19:16.101Z,2.10
2019-05-14T02:21:47.070Z,2.37
2019-05-14T02:24:18.496Z,2.73
2019-05-14T02:26:51.466Z,2.83
2019-05-14T02:29:22.584Z,2.03
2019-05-14T02:31:53.974Z,2.50
2019-05-14T02:34:25.006Z,2.33
2019-05-14T02:36:56.093Z,2.50
2019-05-14T02:39:29.183Z,2.67
2019-05-14T02:42:00.068Z,2.50
2019-05-14T02:44:31.049Z,2.50
2019-05-14T02:47:02.184Z,2.47
2019-05-14T02:49:33.195Z,2.60
2019-05-14T02:52:04.613Z,2.70
2019-05-14T02:54:36.020Z,2.40
2019-05-14T02:57:10.311Z,2.53
2019-05-14T02:59:40.174Z,2.50
2019-05-14T03:02:11.154Z,2.40
2019-05-14T03:04:42.260Z,2.50
2019-05-14T03:07:13.282Z,3.00
2019-05-14T03:09:44.282Z,2.17
2019-05-14T03:12:15.252Z,2.37
2019-05-14T03:14:49.472Z,2.37
2019-05-14T03:17:19.991Z,2.80
2019-05-14T03:19:51.573Z,2.50
2019-05-14T03:22:28.267Z,2.70
2019-05-14T03:24:55.320Z,2.80
2019-05-14T03:27:30.109Z,2.60
2019-05-14T03:29:59.421Z,2.63
2019-05-14T03:32:32.984Z,2.70
2019-05-14T03:35:04.745Z,2.87
2019-05-14T03:37:38.924Z,2.70
2019-05-14T03:40:09.633Z,2.90
2019-05-14T03:42:41.045Z,2.93
2019-05-14T03:45:13.235Z,2.60
2019-05-14T03:47:44.744Z,2.60
2019-05-14T03:50:19.030Z,2.87
2019-05-14T03:52:49.868Z,3.17
2019-05-14T03:55:21.591Z,2.80
2019-05-14T03:57:52.611Z,3.10
2019-05-14T04:00:40.980Z,3.13
2019-05-14T04:03:12.262Z,3.00
2019-05-14T04:05:43.715Z,3.10
2019-05-14T04:08:15.802Z,3.10
2019-05-14T04:10:53.760Z,2.70
2019-05-14T04:13:23.822Z,3.00
2019-05-14T04:15:59.797Z,3.07
2019-05-14T04:18:32.220Z,3.30
2019-05-14T04:21:04.794Z,3.00
2019-05-14T04:23:39.626Z,3.27
2019-05-14T04:26:12.696Z,3.37
2019-05-14T04:28:45.484Z,3.40
2019-05-14T04:31:19.207Z,3.10
2019-05-14T04:33:50.866Z,3.20
2019-05-14T04:36:21.857Z,3.03
2019-05-14T04:38:55.292Z,3.50
2019-05-14T04:41:25.629Z,3.60
2019-05-14T04:43:59.459Z,3.40
2019-05-14T04:46:30.199Z,3.43
2019-05-14T04:49:01.595Z,3.70
2019-05-14T04:51:33.049Z,3.57
2019-05-14T04:54:04.299Z,3.73
2019-05-14T04:56:39.458Z,4.03
2019-05-14T04:59:10.409Z,3.70
2019-05-14T05:01:41.559Z,3.90
2019-05-14T05:04:12.928Z,3.60
2019-05-14T05:06:44.002Z,3.53
2019-05-14T05:09:15.236Z,3.90
2019-05-14T05:11:46.219Z,4.80
2019-05-14T05:14:19.112Z,4.43
2019-05-14T05:16:50.771Z,3.70
2019-05-14T05:19:21.724Z,4.37
2019-05-14T05:21:53.162Z,4.57
2019-05-14T05:24:24.214Z,4.67
2019-05-14T05:26:55.275Z,4.00
2019-05-14T05:29:28.425Z,4.20
2019-05-14T05:31:59.523Z,3.97
2019-05-14T05:34:30.760Z,4.13
2019-05-14T05:37:01.763Z,4.10
2019-05-14T05:39:33.076Z,5.37
2019-05-14T05:42:04.428Z,4.50
2019-05-14T05:44:35.544Z,4.17
2019-05-14T05:47:09.176Z,4.50
2019-05-14T05:49:39.527Z,5.00
2019-05-14T05:52:10.927Z,4.60
2019-05-14T05:54:42.219Z,5.10
2019-05-14T05:57:13.870Z,4.50
2019-05-14T05:59:44.807Z,4.50
2019-05-14T06:02:18.609Z,4.40
2019-05-14T06:04:50.339Z,4.20
2019-05-14T06:07:22.019Z,4.40
2019-05-14T06:09:53.032Z,4.40
2019-05-14T06:12:24.022Z,4.73
2019-05-14T06:14:55.042Z,4.40
2019-05-14T06:17:28.303Z,4.60
2019-05-14T06:19:59.206Z,4.03
2019-05-14T06:22:30.679Z,4.53
2019-05-14T06:25:01.672Z,4.40
2019-05-14T06:27:32.847Z,4.67
2019-05-14T06:30:04.152Z,4.80
2019-05-14T06:32:38.417Z,4.03
2019-05-14T06:35:08.967Z,4.30
2019-05-14T06:37:40.132Z,4.40
2019-05-14T06:40:11.188Z,4.33
2019-05-14T06:42:42.525Z,4.33
2019-05-14T06:45:13.956Z,4.30
2019-05-14T06:47:45.329Z,4.40
2019-05-14T06:50:19.014Z,4.43
2019-05-14T06:52:50.334Z,3.97
2019-05-14T06:55:21.389Z,4.23
2019-05-14T06:57:53.191Z,4.77
2019-05-14T07:00:24.425Z,4.60
2019-05-14T07:02:58.093Z,4.20
2019-05-14T07:05:28.222Z,4.43
2019-05-14T07:07:59.855Z,3.73
2019-05-14T07:10:30.969Z,3.70
2019-05-14T07:13:02.262Z,4.03
2019-05-14T07:15:33.841Z,3.90
2019-05-14T07:18:04.933Z,3.87
2019-05-14T07:20:38.927Z,3.70
2019-05-14T07:23:09.673Z,3.70
2019-05-14T07:25:40.655Z,3.90
2019-05-14T07:28:11.665Z,4.07
2019-05-14T07:30:42.824Z,3.50
2019-05-14T07:33:14.916Z,3.90
2019-05-14T07:35:45.826Z,3.73
2019-05-14T07:38:19.546Z,3.90
2019-05-14T07:40:50.573Z,3.93
2019-05-14T07:43:21.637Z,3.80
2019-05-14T07:45:52.915Z,3.77
2019-05-14T07:48:23.865Z,3.97
2019-05-14T07:50:55.172Z,3.50
2019-05-14T07:53:36.249Z,3.67
2019-05-14T07:55:59.475Z,3.57
2019-05-14T07:58:30.961Z,3.43
2019-05-14T08:01:02.005Z,3.60
2019-05-14T08:03:32.986Z,3.37
2019-05-14T08:06:04.060Z,3.27
2019-05-14T08:08:35.084Z,3.23
2019-05-14T08:11:08.430Z,2.90
2019-05-14T08:13:39.475Z,3.20
2019-05-14T08:16:11.579Z,2.57
2019-05-14T08:18:42.514Z,3.10
2019-05-14T08:21:13.882Z,3.03
2019-05-14T08:23:44.854Z,3.23
2019-05-14T08:26:15.902Z,3.03
2019-05-14T08:28:48.862Z,2.60
2019-05-14T08:31:19.966Z,2.63
2019-05-14T08:36:33.602Z,2.80
2019-05-14T08:39:06.082Z,3.37
2019-05-14T08:41:38.432Z,3.00
2019-05-14T08:44:10.751Z,2.80
2019-05-14T08:46:45.010Z,2.63
2019-05-14T08:49:14.639Z,2.63
2019-05-14T08:51:45.679Z,2.70
2019-05-14T08:54:18.703Z,3.20
2019-05-14T08:56:49.444Z,2.97
2019-05-14T08:59:21.912Z,2.70
2019-05-14T09:02:02.459Z,2.43
2019-05-14T09:04:29.706Z,2.50
2019-05-14T09:06:58.865Z,2.70
2019-05-14T09:09:29.915Z,2.47
2019-05-14T09:12:01.239Z,2.37
2019-05-14T09:14:32.978Z,2.30
2019-05-14T09:17:03.912Z,2.73
2019-05-14T09:19:34.950Z,2.67
2019-05-14T09:22:06.261Z,2.40
2019-05-14T09:24:38.744Z,2.27
2019-05-14T09:27:10.350Z,2.60
2019-05-14T09:29:41.405Z,2.63
2019-05-14T09:32:12.803Z,2.47
2019-05-14T09:34:44.837Z,2.50
2019-05-14T09:37:19.026Z,2.50
2019-05-14T09:39:48.930Z,2.37
2019-05-14T09:42:20.219Z,2.60
2019-05-14T09:44:51.537Z,2.20
2019-05-14T09:47:22.603Z,2.30
2019-05-14T09:49:55.556Z,2.30
2019-05-14T09:52:29.271Z,2.37
2019-05-14T09:55:00.236Z,2.80
2019-05-14T09:57:31.873Z,2.67
2019-05-14T10:00:06.306Z,2.53
2019-05-14T10:02:39.322Z,2.70
2019-05-14T10:05:11.376Z,2.40
2019-05-14T10:07:42.476Z,2.60
2019-05-14T10:10:13.483Z,2.70
2019-05-14T10:12:52.695Z,3.00
2019-05-14T10:15:17.493Z,3.10
2019-05-14T10:17:49.952Z,2.53
2019-05-14T10:20:36.591Z,2.77
2019-05-14T10:22:54.090Z,2.70
2019-05-14T10:25:25.059Z,2.70
2019-05-14T10:27:58.922Z,2.40
2019-05-14T10:30:28.926Z,2.80
2019-05-14T10:33:09.699Z,3.30
2019-05-14T10:35:33.361Z,2.53
2019-05-14T10:38:04.431Z,2.37
2019-05-14T10:40:38.221Z,2.57
2019-05-14T10:43:09.273Z,2.70
2019-05-14T10:45:40.379Z,2.80
2019-05-14T10:48:11.318Z,2.50
2019-05-14T10:50:56.409Z,2.90
2019-05-14T10:53:15.382Z,3.03
2019-05-14T10:55:48.500Z,3.50
2019-05-14T10:58:19.739Z,2.93
2019-05-14T11:00:51.193Z,3.53
2019-05-14T11:03:22.260Z,2.90
2019-05-14T11:05:53.718Z,3.10
2019-05-14T11:08:24.747Z,3.27
2019-05-14T11:11:02.997Z,3.07
2019-05-14T11:13:29.317Z,3.43
2019-05-14T11:16:00.848Z,3.20
2019-05-14T11:18:31.989Z,3.63
2019-05-14T11:21:18.758Z,3.10
2019-05-14T11:23:38.638Z,2.50
2019-05-14T11:26:09.312Z,3.00
2019-05-14T11:28:40.462Z,2.73
2019-05-14T11:31:11.414Z,3.70
2019-05-14T11:33:42.433Z,2.90
2019-05-14T11:36:13.743Z,3.20
2019-05-14T11:38:44.709Z,3.20
2019-05-14T11:41:15.674Z,2.73
2019-05-14T11:43:49.227Z,3.10
2019-05-14T11:46:33.720Z,3.33
2019-05-14T11:48:53.233Z,2.90
2019-05-14T11:51:56.181Z,2.87
2019-05-14T11:53:58.695Z,2.90
2019-05-14T11:56:30.587Z,3.00
2019-05-14T11:59:01.631Z,2.87
2019-05-14T12:01:33.597Z,3.03
2019-05-14T12:04:08.712Z,2.80
2019-05-14T12:06:39.199Z,3.00
2019-05-14T12:09:11.889Z,3.50
2019-05-14T12:11:43.200Z,3.33
2019-05-14T12:14:14.155Z,3.13
2019-05-14T12:16:45.167Z,3.30
2019-05-14T12:19:18.678Z,3.40
2019-05-14T12:22:02.796Z,3.50
2019-05-14T12:24:21.726Z,3.47
2019-05-14T12:26:52.805Z,3.10
2019-05-14T12:29:35.202Z,3.90
2019-05-14T12:32:12.925Z,3.63
2019-05-14T12:34:40.773Z,3.53
2019-05-14T12:37:11.850Z,3.60
2019-05-14T12:39:42.878Z,3.40
2019-05-14T12:42:14.262Z,3.60
2019-05-14T12:44:45.183Z,2.87
2019-05-14T12:47:18.821Z,3.00
2019-05-14T12:49:49.630Z,2.93
2019-05-14T12:52:25.810Z,3.70
2019-05-14T12:54:53.690Z,3.80
2019-05-14T12:57:29.837Z,3.77
2019-05-14T13:00:00.247Z,3.97
2019-05-14T13:02:31.249Z,3.33
2019-05-14T13:05:02.592Z,3.07
2019-05-14T13:07:35.915Z,3.40
2019-05-14T13:10:09.174Z,3.67
2019-05-14T13:12:39.905Z,4.17
2019-05-14T13:15:12.360Z,3.43
2019-05-14T13:17:44.191Z,4.00
2019-05-14T13:20:18.378Z,3.80
2019-05-14T13:22:50.409Z,3.67
2019-05-14T13:25:21.777Z,3.80
2019-05-14T13:27:52.779Z,3.53
2019-05-14T13:30:24.132Z,3.63
2019-05-14T13:32:55.671Z,3.40
2019-05-14T13:35:29.126Z,3.80
2019-05-14T13:37:59.605Z,3.50
2019-05-14T13:40:30.997Z,3.80
2019-05-14T13:43:02.211Z,4.30
2019-05-14T13:45:33.218Z,4.00
2019-05-14T13:48:08.227Z,4.07
2019-05-14T13:50:40.246Z,3.80
2019-05-14T13:53:12.820Z,3.60
2019-05-14T13:55:47.705Z,4.60
2019-05-14T13:58:20.456Z,3.60
2019-05-14T14:00:52.104Z,4.67
2019-05-14T14:03:22.981Z,4.00
2019-05-14T14:05:54.016Z,3.50
2019-05-14T14:08:25.059Z,3.63
2019-05-14T14:11:02.216Z,3.33
2019-05-14T14:13:31.334Z,3.87
2019-05-14T14:16:01.844Z,3.97
2019-05-14T14:18:32.936Z,4.07
2019-05-14T14:21:03.979Z,4.30
2019-05-14T14:23:35.518Z,3.87
2019-05-14T14:26:09.296Z,4.13
2019-05-14T14:28:40.160Z,4.23
2019-05-14T14:31:11.308Z,4.10
2019-05-14T14:33:43.577Z,3.63
2019-05-14T14:36:19.535Z,3.73
2019-05-14T14:39:09.776Z,3.93
2019-05-14T14:41:51.720Z,3.90
2019-05-14T14:44:22.678Z,4.10
2019-05-14T14:46:54.111Z,3.93
2019-05-14T14:49:25.116Z,4.03
2019-05-14T14:51:58.949Z,4.20
2019-05-14T14:54:29.481Z,3.60
2019-05-14T14:57:00.440Z,3.97
2019-05-14T14:59:32.071Z,3.70
2019-05-14T15:02:03.132Z,3.60
2019-05-14T15:04:34.163Z,4.00
2019-05-14T15:07:05.235Z,3.50
2019-05-14T15:09:36.202Z,3.83
2019-05-14T15:12:09.112Z,3.67
2019-05-14T15:14:40.704Z,4.13
2019-05-14T15:17:11.717Z,3.77
2019-05-14T15:19:42.678Z,4.10
2019-05-14T15:22:14.195Z,3.47
2019-05-14T15:24:45.177Z,4.30
2019-05-14T15:27:18.758Z,3.80
2019-05-14T15:29:49.311Z,3.97
2019-05-14T15:32:20.294Z,3.90
2019-05-14T15:34:51.931Z,4.33
2019-05-14T15:37:22.947Z,3.50
2019-05-14T15:39:54.333Z,4.73
2019-05-14T15:42:25.293Z,3.70
2019-05-14T15:44:59.561Z,3.60
2019-05-14T15:47:29.788Z,3.73
2019-05-14T15:50:01.492Z,3.83
2019-05-14T15:52:32.591Z,3.40
2019-05-14T15:55:03.579Z,3.23
2019-05-14T15:57:34.550Z,3.20
2019-05-14T16:00:08.723Z,3.97
2019-05-14T16:02:40.421Z,3.70
2019-05-14T16:05:11.421Z,3.77
2019-05-14T16:07:42.901Z,3.47
2019-05-14T16:10:14.314Z,3.80
2019-05-14T16:12:45.407Z,3.83
2019-05-14T16:15:18.725Z,3.70
2019-05-14T16:18:06.396Z,3.80
2019-05-14T16:20:22.226Z,3.80
2019-05-14T16:22:53.617Z,3.70
2019-05-14T16:25:24.978Z,3.33
2019-05-14T16:27:58.784Z,3.80
2019-05-14T16:30:29.416Z,3.80
2019-05-14T16:33:01.738Z,3.67
2019-05-14T16:35:32.778Z,3.00
2019-05-14T16:38:03.750Z,3.10
2019-05-14T16:40:34.709Z,3.60
2019-05-14T16:43:05.760Z,3.03
2019-05-14T16:45:39.432Z,3.10
2019-05-14T16:48:10.812Z,3.40
2019-05-14T16:50:42.210Z,3.13
2019-05-14T16:53:14.244Z,3.60
2019-05-14T16:55:45.627Z,3.27
2019-05-14T16:58:19.654Z,3.43
2019-05-14T17:00:49.558Z,3.00
2019-05-14T17:03:21.135Z,3.10
2019-05-14T17:05:52.386Z,3.20
2019-05-14T17:08:24.307Z,3.50
2019-05-14T17:10:55.283Z,3.80
2019-05-14T17:13:28.445Z,3.40
2019-05-14T17:15:59.120Z,3.70
2019-05-14T17:18:30.083Z,3.40
2019-05-14T17:21:04.467Z,3.30
2019-05-14T17:23:35.571Z,3.47
2019-05-14T17:26:08.767Z,3.13
2019-05-14T17:28:40.460Z,3.30
2019-05-14T17:31:13.683Z,3.13
2019-05-14T17:33:44.908Z,2.97
2019-05-14T17:36:18.579Z,3.47
2019-05-14T17:38:49.430Z,3.30
2019-05-14T17:41:21.655Z,3.10
2019-05-14T17:43:52.665Z,3.57
2019-05-14T17:46:23.793Z,3.50
2019-05-14T17:48:55.124Z,2.87
2019-05-14T17:51:28.273Z,2.77
2019-05-14T17:53:59.212Z,3.20
2019-05-14T17:56:30.269Z,3.00
2019-05-14T17:59:01.574Z,2.90
2019-05-14T18:01:32.902Z,3.20
2019-05-14T18:04:05.328Z,2.80
2019-05-14T18:06:36.507Z,2.70
2019-05-14T18:09:09.096Z,2.87
2019-05-14T18:11:40.724Z,2.70
2019-05-14T18:14:12.184Z,3.13
2019-05-14T18:16:43.620Z,2.83
2019-05-14T18:19:14.620Z,2.80
2019-05-14T18:21:48.696Z,3.00
2019-05-14T18:24:19.714Z,2.83
2019-05-14T18:26:50.806Z,2.80
2019-05-14T18:29:21.846Z,2.73
2019-05-14T18:31:54.751Z,2.87
2019-05-14T18:34:28.355Z,3.10
2019-05-14T18:37:01.105Z,3.10
2019-05-14T18:39:32.137Z,2.77
2019-05-14T18:42:03.131Z,2.80
2019-05-14T18:44:34.148Z,2.77
2019-05-14T18:47:05.111Z,3.07
2019-05-14T18:49:36.120Z,2.63
2019-05-14T18:52:08.900Z,2.87
2019-05-14T18:54:40.042Z,3.07
2019-05-14T18:57:12.169Z,2.67
2019-05-14T18:59:43.985Z,3.00
2019-05-14T19:02:15.342Z,3.10
2019-05-14T19:04:48.433Z,3.10
2019-05-14T19:07:20.621Z,3.30
2019-05-14T19:09:51.894Z,2.93
2019-05-14T19:12:22.969Z,3.20
2019-05-14T19:14:53.938Z,3.33
2019-05-14T19:17:24.937Z,3.00
2019-05-14T19:19:58.733Z,2.70
2019-05-14T19:22:29.981Z,2.70
2019-05-14T19:25:00.979Z,2.70
2019-05-14T19:27:32.361Z,3.20
2019-05-14T19:30:04.445Z,2.90
2019-05-14T19:32:38.952Z,2.90
2019-05-14T19:35:09.285Z,2.70
2019-05-14T19:37:40.775Z,2.47
2019-05-14T19:40:12.633Z,2.50
2019-05-14T19:42:43.604Z,3.10
2019-05-14T19:45:14.885Z,2.90
2019-05-14T19:47:45.867Z,3.07
2019-05-14T19:50:18.750Z,3.50
2019-05-14T19:52:49.977Z,2.90
2019-05-14T19:55:21.355Z,2.93
2019-05-14T19:57:52.445Z,2.80
2019-05-14T20:00:25.505Z,3.00
2019-05-14T20:02:58.184Z,3.53
2019-05-14T20:05:29.339Z,3.07
2019-05-14T20:08:00.510Z,2.80
2019-05-14T20:10:31.834Z,3.40
2019-05-14T20:13:02.835Z,2.90
2019-05-14T20:15:34.095Z,3.00
2019-05-14T20:18:05.106Z,3.20
2019-05-14T20:20:38.281Z,3.17
2019-05-14T20:23:09.796Z,3.00
2019-05-14T20:25:41.503Z,2.90
2019-05-14T20:28:12.829Z,3.30
2019-05-14T20:30:43.776Z,3.10
2019-05-14T20:33:14.840Z,2.90
2019-05-14T20:35:47.905Z,3.23
2019-05-14T20:38:18.761Z,3.30
2019-05-14T20:40:50.046Z,2.87
2019-05-14T20:43:21.290Z,3.17
2019-05-14T20:45:52.375Z,2.80
2019-05-14T20:48:23.359Z,2.83
2019-05-14T20:50:54.716Z,3.40
2019-05-14T20:53:26.098Z,3.40
2019-05-14T20:55:58.850Z,3.13
2019-05-14T20:58:29.840Z,2.93
2019-05-14T21:01:01.397Z,3.00
2019-05-14T21:03:32.477Z,2.93
2019-05-14T21:06:03.574Z,2.83
2019-05-14T21:08:34.984Z,3.00
2019-05-14T21:11:08.181Z,3.23
2019-05-14T21:13:39.490Z,2.60
2019-05-14T21:16:10.942Z,2.87
2019-05-14T21:18:41.988Z,2.97
2019-05-14T21:21:13.069Z,3.03
2019-05-14T21:23:44.079Z,2.80
2019-05-14T21:26:15.172Z,3.10
2019-05-14T21:28:48.592Z,3.47
2019-05-14T21:31:19.288Z,3.10
2019-05-14T21:33:50.409Z,3.03
2019-05-14T21:36:21.466Z,3.10
2019-05-14T21:38:52.941Z,3.30
2019-05-14T21:41:24.332Z,2.97
2019-05-14T21:43:55.344Z,3.33
2019-05-14T21:46:28.910Z,3.47
2019-05-14T21:49:00.216Z,2.90
2019-05-14T21:51:31.269Z,3.20
2019-05-14T21:54:02.294Z,3.00
2019-05-14T21:56:33.424Z,3.30
2019-05-14T21:59:04.561Z,3.03
2019-05-14T22:01:35.674Z,3.00
2019-05-14T22:04:08.769Z,2.83
2019-05-14T22:06:41.201Z,3.00
2019-05-14T22:09:13.823Z,3.07
2019-05-14T22:11:44.880Z,3.07
2019-05-14T22:14:15.991Z,2.80
2019-05-14T22:16:48.704Z,2.90
2019-05-14T22:19:19.891Z,3.20
2019-05-14T22:21:50.942Z,3.27
2019-05-14T22:24:22.777Z,3.13
2019-05-14T22:26:54.168Z,2.80
2019-05-14T22:29:25.924Z,3.40
2019-05-14T22:31:58.696Z,3.10
2019-05-14T22:34:30.229Z,3.43
2019-05-14T22:37:01.304Z,3.10
2019-05-14T22:39:32.472Z,3.20
2019-05-14T22:42:03.784Z,3.00
2019-05-14T22:44:34.816Z,3.40
2019-05-14T22:47:08.103Z,3.23
2019-05-14T22:49:38.977Z,3.17
2019-05-14T22:52:10.136Z,3.00
2019-05-14T22:54:41.236Z,3.30
2019-05-14T22:57:12.299Z,3.10
2019-05-14T22:59:43.386Z,3.37
2019-05-14T23:02:15.045Z,3.60
2019-05-14T23:04:46.181Z,3.70
2019-05-14T23:07:18.979Z,3.37
2019-05-14T23:09:51.055Z,3.53
2019-05-14T23:12:22.508Z,3.10
2019-05-14T23:14:53.623Z,3.27
2019-05-14T23:17:24.686Z,3.40
2019-05-14T23:19:57.923Z,3.30
2019-05-14T23:22:29.754Z,3.60
2019-05-14T23:25:01.037Z,3.30
2019-05-14T23:27:32.084Z,3.37
2019-05-14T23:30:03.339Z,3.27
2019-05-14T23:32:34.813Z,3.50
2019-05-14T23:35:06.581Z,3.23
2019-05-14T23:37:38.219Z,3.63
2019-05-14T23:40:09.231Z,3.50
2019-05-14T23:42:40.295Z,3.40
2019-05-14T23:45:11.896Z,3.63
2019-05-14T23:47:43.646Z,3.23
2019-05-14T23:50:14.938Z,3.43
2019-05-14T23:52:45.978Z,3.70
2019-05-14T23:55:18.048Z,3.57
2019-05-14T23:57:49.728Z,3.47
